Time;durP1;ratioP1;P1;durP2;ratioP2;P2;SDS_P1;SDS_P2;PMS_P1;PMS_P2;Temp;Humidity;BMP_temperature;BMP_pressure;BME280_temperature;BME280_humidity;BME280_pressure;Samples;Min_cycle;Max_cycle;Signal;HPM_P1;HPM_P2
2022/03/30 00:00:19;;;;;;;1.73;1.63;;;;;;;11.09;51.32;100103.28;5212273;28;20029;-77
2022/03/30 00:02:49;;;;;;;2.70;2.17;;;;;;;10.97;51.22;100099.34;5166033;28;20037;-77
2022/03/30 00:05:23;;;;;;;5.78;3.63;;;;;;;10.85;51.76;100103.31;5177359;28;20378;-78
2022/03/30 00:07:54;;;;;;;2.17;1.95;;;;;;;10.94;51.80;100091.59;5199585;28;20488;-77
2022/03/30 00:10:25;;;;;;;2.63;2.42;;;;;;;10.93;51.58;100085.50;5193907;28;20040;-78
2022/03/30 00:12:56;;;;;;;7.47;3.58;;;;;;;11.05;51.14;100088.53;5182434;28;20033;-77
2022/03/30 00:15:27;;;;;;;3.03;2.72;;;;;;;10.82;51.84;100087.66;5189996;28;20223;-78
2022/03/30 00:17:58;;;;;;;2.53;2.13;;;;;;;10.98;51.74;100096.66;5195778;28;20029;-77
2022/03/30 00:20:28;;;;;;;2.50;2.33;;;;;;;10.82;51.91;100092.91;5199547;28;20029;-77
2022/03/30 00:22:59;;;;;;;2.20;2.00;;;;;;;10.90;51.98;100096.09;5202643;28;20033;-77
2022/03/30 00:25:29;;;;;;;3.63;2.47;;;;;;;10.71;52.19;100090.72;5155065;28;20033;-78
2022/03/30 00:28:01;;;;;;;2.75;2.55;;;;;;;10.82;52.02;100093.78;5175745;28;20033;-78
2022/03/30 00:30:31;;;;;;;2.97;2.78;;;;;;;10.90;51.47;100090.84;5189831;28;20095;-78
2022/03/30 00:33:01;;;;;;;2.08;1.92;;;;;;;10.79;51.66;100088.66;5182495;28;20029;-77
2022/03/30 00:35:32;;;;;;;2.97;2.05;;;;;;;10.85;51.31;100083.16;5202117;28;20044;-77
2022/03/30 00:38:05;;;;;;;;;;;;;;;10.68;52.06;100075.94;5216492;28;20025;-77
2022/03/30 00:40:36;;;;;;;2.03;1.92;;;;;;;10.78;51.76;100067.72;5193952;28;20273;-77
2022/03/30 00:43:06;;;;;;;2.42;1.88;;;;;;;10.86;51.21;100068.28;5188829;28;20063;-77
2022/03/30 00:45:37;;;;;;;3.33;2.75;;;;;;;10.86;51.15;100065.66;5168411;28;20126;-76
2022/03/30 00:48:07;;;;;;;2.42;2.22;;;;;;;10.53;52.82;100060.78;5206014;28;20038;-77
2022/03/30 00:50:38;;;;;;;6.55;3.45;;;;;;;10.79;51.47;100062.41;5192189;28;20037;-77
2022/03/30 00:53:08;;;;;;;3.03;2.38;;;;;;;10.75;51.58;100057.34;5207281;28;20068;-78
2022/03/30 00:55:39;;;;;;;5.78;1.90;;;;;;;10.73;51.79;100061.78;5181328;28;20037;-77
2022/03/30 00:58:12;;;;;;;3.50;2.60;;;;;;;10.76;51.72;100059.88;5202408;28;20021;-77
2022/03/30 01:00:43;;;;;;;2.58;1.92;;;;;;;10.81;51.86;100060.59;5195630;28;20048;-77
2022/03/30 01:03:14;;;;;;;3.22;2.92;;;;;;;10.88;51.26;100060.34;5199191;28;20409;-78
2022/03/30 01:05:45;;;;;;;2.20;2.08;;;;;;;10.84;51.23;100060.44;5200578;28;20049;-77
2022/03/30 01:08:15;;;;;;;7.93;4.00;;;;;;;10.70;51.97;100058.34;5198971;28;20529;-77
2022/03/30 01:10:47;;;;;;;3.25;1.33;;;;;;;10.66;52.00;100055.94;5191716;28;20073;-78
2022/03/30 01:13:18;;;;;;;5.90;4.05;;;;;;;10.53;52.23;100051.13;5186396;28;20030;-77
2022/03/30 01:15:49;;;;;;;4.75;2.85;;;;;;;10.77;51.85;100045.84;5191878;28;20037;-78
2022/03/30 01:18:21;;;;;;;6.20;2.90;;;;;;;10.82;51.65;100050.94;5210547;28;20092;-77
2022/03/30 01:20:51;;;;;;;1.35;1.25;;;;;;;10.69;51.77;100046.16;5194169;28;20037;-78
2022/03/30 01:23:21;;;;;;;2.60;2.40;;;;;;;10.62;52.74;100042.03;5191164;28;20026;-77
2022/03/30 01:25:52;;;;;;;2.30;1.67;;;;;;;10.71;52.44;100043.47;5192477;28;20036;-77
2022/03/30 01:28:27;;;;;;;1.52;1.42;;;;;;;10.80;51.73;100032.63;5189833;28;20560;-77
2022/03/30 01:33:48;;;;;;;1.88;1.77;;;;;;;10.77;51.98;100026.66;5201019;28;20057;-77
2022/03/30 01:36:18;;;;;;;7.70;3.95;;;;;;;10.79;52.45;100030.91;5162414;28;20065;-77
2022/03/30 01:38:49;;;;;;;4.22;3.83;;;;;;;10.92;51.80;100015.53;5175895;28;20037;-78
2022/03/30 01:41:19;;;;;;;21.25;3.38;;;;;;;10.91;51.76;100016.47;5188500;28;20046;-78
2022/03/30 01:43:50;;;;;;;2.50;2.30;;;;;;;10.67;52.88;100016.50;5187116;28;20021;-78
2022/03/30 01:46:20;;;;;;;1.95;1.85;;;;;;;10.80;52.06;100002.91;5180213;28;20044;-77
2022/03/30 01:48:51;;;;;;;1.02;1.02;;;;;;;10.53;53.47;100003.06;5201974;28;20308;-78
2022/03/30 01:51:21;;;;;;;2.58;1.55;;;;;;;10.78;52.81;100004.75;5195501;28;20124;-78
2022/03/30 01:53:52;;;;;;;1.90;1.60;;;;;;;10.67;52.97;99995.53;5196596;28;20031;-77
2022/03/30 01:56:22;;;;;;;3.35;2.22;;;;;;;10.66;52.12;100001.69;5191537;28;20060;-78
2022/03/30 01:58:53;;;;;;;2.38;1.95;;;;;;;10.73;51.87;99993.56;5188146;28;20056;-78
2022/03/30 02:01:23;;;;;;;2.85;2.65;;;;;;;10.66;52.35;99993.81;5222926;28;20311;-78
2022/03/30 02:03:56;;;;;;;3.42;2.92;;;;;;;10.66;52.49;99999.06;5198301;28;20039;-78
2022/03/30 02:06:27;;;;;;;4.05;2.35;;;;;;;10.73;51.96;99990.94;5201106;28;20033;-79
2022/03/30 02:08:59;;;;;;;5.13;2.90;;;;;;;10.62;52.59;99997.44;5179361;28;20083;-79
2022/03/30 02:11:33;;;;;;;2.00;1.90;;;;;;;10.44;53.21;99999.03;5208305;28;20369;-76
2022/03/30 02:14:04;;;;;;;1.83;1.73;;;;;;;10.48;52.93;99990.13;5179850;28;20030;-76
2022/03/30 02:16:36;;;;;;;2.33;1.83;;;;;;;10.54;52.34;99989.88;5193620;28;20561;-76
2022/03/30 02:19:06;;;;;;;3.33;2.50;;;;;;;10.67;51.65;99990.28;5196435;28;20053;-76
2022/03/30 02:21:37;;;;;;;4.90;2.88;;;;;;;10.73;51.96;99988.31;5182181;28;20152;-76
2022/03/30 02:24:07;;;;;;;4.57;2.95;;;;;;;10.56;52.35;99984.56;5175088;28;20029;-76
2022/03/30 02:26:38;;;;;;;1.33;1.30;;;;;;;10.55;52.06;99985.50;5205467;28;20057;-76
2022/03/30 02:29:08;;;;;;;1.77;1.65;;;;;;;10.51;52.53;99982.13;5210015;28;20412;-76
2022/03/30 02:31:39;;;;;;;1.58;1.48;;;;;;;10.55;52.33;99981.13;5181490;28;20042;-76
2022/03/30 02:34:11;;;;;;;2.72;2.08;;;;;;;10.57;52.09;99973.19;5198568;28;20095;-76
2022/03/30 02:36:42;;;;;;;3.30;2.55;;;;;;;10.68;51.75;99970.13;5192473;28;20049;-77
2022/03/30 02:39:14;;;;;;;3.53;3.22;;;;;;;10.69;51.87;99967.47;5198578;28;20083;-76
2022/03/30 02:41:45;;;;;;;5.68;3.00;;;;;;;10.49;52.05;99970.88;5191848;28;20042;-77
2022/03/30 02:44:15;;;;;;;1.30;1.20;;;;;;;10.49;52.04;99959.50;5210540;28;20033;-77
2022/03/30 02:46:46;;;;;;;3.00;2.45;;;;;;;10.52;52.55;99959.41;5190940;28;20044;-77
2022/03/30 02:49:16;;;;;;;1.95;1.85;;;;;;;10.37;52.68;99953.81;5198667;28;20281;-77
2022/03/30 02:51:47;;;;;;;1.83;1.73;;;;;;;10.27;52.79;99959.44;5185571;28;20350;-76
2022/03/30 02:54:17;;;;;;;1.33;1.23;;;;;;;10.23;52.95;99953.47;5200286;28;20038;-77
2022/03/30 02:56:48;;;;;;;25.33;5.38;;;;;;;10.34;52.58;99955.66;5226104;28;20305;-76
2022/03/30 02:59:18;;;;;;;4.70;2.53;;;;;;;10.37;52.73;99951.19;5183867;28;20099;-77
2022/03/30 03:01:49;;;;;;;2.65;1.58;;;;;;;10.28;53.41;99945.41;5196448;28;20065;-77
2022/03/30 03:04:20;;;;;;;1.27;1.27;;;;;;;10.34;52.60;99943.44;5194805;28;20443;-76
2022/03/30 03:06:51;;;;;;;4.03;3.25;;;;;;;10.41;52.39;99945.84;5219697;28;20043;-77
2022/03/30 03:09:22;;;;;;;2.38;2.17;;;;;;;10.25;53.24;99935.91;5201011;28;20326;-77
2022/03/30 03:11:52;;;;;;;2.60;2.40;;;;;;;10.10;53.30;99939.13;5192617;28;20061;-77
2022/03/30 03:14:22;;;;;;;4.55;2.33;;;;;;;10.05;53.93;99941.91;5213833;28;20037;-78
2022/03/30 03:16:53;;;;;;;5.28;3.28;;;;;;;10.32;53.27;99941.78;5203038;28;20045;-77
2022/03/30 03:19:24;;;;;;;2.10;1.90;;;;;;;10.30;52.82;99936.56;5183051;28;20328;-78
2022/03/30 03:21:54;;;;;;;0.65;0.65;;;;;;;10.14;54.19;99938.06;5198789;28;20050;-78
2022/03/30 03:24:25;;;;;;;2.83;1.42;;;;;;;10.25;53.30;99935.91;5195373;28;20041;-78
2022/03/30 03:26:56;;;;;;;9.13;2.83;;;;;;;10.22;52.53;99939.50;5206704;28;20048;-77
2022/03/30 03:29:26;;;;;;;3.55;2.90;;;;;;;10.31;52.58;99943.53;5215637;28;20052;-77
2022/03/30 03:31:57;;;;;;;1.90;1.75;;;;;;;10.24;53.10;99935.06;5204221;28;20075;-77
2022/03/30 03:34:27;;;;;;;2.60;2.40;;;;;;;10.11;54.11;99936.44;5206943;28;20025;-77
2022/03/30 03:36:58;;;;;;;1.95;1.85;;;;;;;9.85;54.70;99940.03;5201544;28;20041;-77
2022/03/30 03:39:28;;;;;;;1.02;1.02;;;;;;;10.04;53.16;99938.41;5194880;28;20037;-77
2022/03/30 03:41:59;;;;;;;3.00;2.70;;;;;;;10.12;52.91;99934.69;5208568;28;20046;-76
2022/03/30 03:44:29;;;;;;;4.35;2.72;;;;;;;10.04;53.14;99933.16;5210139;28;20030;-77
2022/03/30 03:46:59;;;;;;;2.45;2.22;;;;;;;9.92;53.97;99931.03;5193958;28;20090;-77
2022/03/30 03:49:30;;;;;;;2.90;2.67;;;;;;;9.93;53.64;99935.38;5192273;28;20033;-76
2022/03/30 03:52:00;;;;;;;2.85;2.65;;;;;;;9.89;54.27;99931.13;5190905;28;20038;-76
2022/03/30 03:54:31;;;;;;;2.15;1.88;;;;;;;9.95;54.14;99932.66;5196316;28;20229;-77
2022/03/30 03:57:01;;;;;;;1.60;1.50;;;;;;;9.72;54.86;99935.22;5202662;28;20033;-77
2022/03/30 03:59:32;;;;;;;2.90;2.00;;;;;;;9.69;54.64;99932.72;5191592;28;20052;-77
2022/03/30 04:02:04;;;;;;;0.88;0.88;;;;;;;9.84;53.89;99928.69;5185615;28;20124;-79
2022/03/30 04:04:37;;;;;;;1.83;1.70;;;;;;;9.62;54.40;99936.47;5180557;28;20033;-79
2022/03/30 04:07:07;;;;;;;2.38;2.20;;;;;;;9.49;55.32;99932.56;5208980;28;20051;-77
2022/03/30 04:09:38;;;;;;;2.50;2.30;;;;;;;9.56;55.20;99929.69;5214695;28;20037;-79
2022/03/30 04:12:09;;;;;;;2.95;2.08;;;;;;;9.67;53.90;99931.91;5191259;28;20034;-79
2022/03/30 04:14:39;;;;;;;1.30;1.20;;;;;;;9.78;53.91;99931.53;5202355;28;20072;-78
2022/03/30 04:17:11;;;;;;;3.42;2.33;;;;;;;9.80;53.67;99920.97;5199291;28;20037;-77
2022/03/30 04:19:41;;;;;;;1.65;1.13;;;;;;;9.80;53.58;99923.59;5220533;28;20095;-76
2022/03/30 04:22:12;;;;;;;1.95;1.85;;;;;;;9.86;53.44;99923.41;5195077;28;20037;-77
2022/03/30 04:24:42;;;;;;;0.95;0.95;;;;;;;9.71;53.79;99919.56;5169619;28;20042;-76
2022/03/30 04:27:13;;;;;;;2.55;2.35;;;;;;;9.70;53.99;99918.72;5183111;28;20132;-79
2022/03/30 04:29:43;;;;;;;3.28;2.97;;;;;;;9.64;53.97;99913.69;5179891;28;20025;-78
2022/03/30 04:32:14;;;;;;;4.65;2.45;;;;;;;9.75;53.83;99915.94;5199405;28;20036;-79
2022/03/30 04:34:45;;;;;;;3.53;2.58;;;;;;;9.69;54.53;99911.78;5200723;28;20210;-79
2022/03/30 04:37:15;;;;;;;2.35;2.20;;;;;;;9.57;54.66;99912.19;5180730;28;20072;-79
2022/03/30 04:39:46;;;;;;;3.25;2.40;;;;;;;9.61;54.10;99908.56;5197480;28;20060;-79
2022/03/30 04:42:16;;;;;;;2.83;2.45;;;;;;;9.60;53.92;99904.25;5207309;28;20046;-79
2022/03/30 04:44:48;;;;;;;1.27;1.17;;;;;;;9.50;54.55;99906.34;5198458;28;20266;-77
2022/03/30 04:47:18;;;;;;;3.22;1.77;;;;;;;9.52;54.93;99909.75;5164413;28;20038;-78
2022/03/30 04:49:48;;;;;;;11.40;2.33;;;;;;;9.23;56.21;99908.16;5191149;28;20036;-78
2022/03/30 04:52:19;;;;;;;2.72;2.53;;;;;;;9.41;54.69;99902.28;5192938;28;20033;-78
2022/03/30 04:54:49;;;;;;;1.60;1.52;;;;;;;9.44;54.47;99907.41;5200534;28;20055;-78
2022/03/30 04:57:20;;;;;;;2.33;2.20;;;;;;;9.49;53.89;99901.16;5190321;28;20044;-79
2022/03/30 04:59:51;;;;;;;2.15;1.95;;;;;;;9.47;54.47;99900.34;5191179;28;20466;-78
2022/03/30 05:02:22;;;;;;;2.33;1.65;;;;;;;9.52;53.65;99898.44;5189250;28;20372;-78
2022/03/30 05:04:53;;;;;;;1.27;1.15;;;;;;;9.51;54.40;99901.94;5192478;28;20123;-78
2022/03/30 05:07:24;;;;;;;2.67;1.75;;;;;;;9.47;54.72;99905.56;5180171;28;20048;-79
2022/03/30 05:09:54;;;;;;;2.58;2.40;;;;;;;9.42;54.37;99903.16;5191262;28;20026;-79
2022/03/30 05:12:25;;;;;;;2.35;2.17;;;;;;;9.47;53.73;99905.56;5183650;28;20549;-77
2022/03/30 05:14:55;;;;;;;1.25;1.20;;;;;;;9.43;53.88;99910.94;5205670;28;20475;-77
2022/03/30 05:17:25;;;;;;;3.78;2.38;;;;;;;9.40;54.42;99911.03;5176957;28;20518;-77
2022/03/30 05:19:56;;;;;;;0.63;0.63;;;;;;;9.39;54.49;99906.72;5186252;28;20033;-77
2022/03/30 05:22:26;;;;;;;2.33;2.20;;;;;;;9.52;54.38;99906.28;5183794;28;20510;-77
2022/03/30 05:24:57;;;;;;;3.60;1.75;;;;;;;9.42;54.34;99901.38;5208422;28;20468;-78
2022/03/30 05:27:28;;;;;;;4.22;3.90;;;;;;;9.45;54.48;99898.66;5203766;22;20049;-79
2022/03/30 05:29:58;;;;;;;2.15;2.00;;;;;;;9.47;53.96;99895.09;5184455;28;20044;-79
2022/03/30 05:32:29;;;;;;;13.32;3.78;;;;;;;9.43;54.62;99897.84;5181540;28;20037;-79
2022/03/30 05:35:00;;;;;;;1.85;1.70;;;;;;;9.39;54.39;99903.25;5202314;28;20029;-79
2022/03/30 05:37:33;;;;;;;0.70;0.70;;;;;;;9.27;55.07;99899.31;5193237;28;20540;-79
2022/03/30 05:40:05;;;;;;;1.67;1.58;;;;;;;9.40;55.32;99899.72;5178260;28;20447;-79
2022/03/30 05:42:36;;;;;;;3.03;2.83;;;;;;;9.11;55.64;99898.97;5193183;28;20071;-79
2022/03/30 05:45:07;;;;;;;3.55;3.28;;;;;;;9.36;54.86;99900.72;5192619;28;20121;-79
2022/03/30 05:47:38;;;;;;;2.03;1.92;;;;;;;9.30;54.57;99901.78;5197590;28;20040;-79
2022/03/30 05:50:09;;;;;;;2.10;2.00;;;;;;;9.39;54.56;99905.88;5192433;28;20436;-79
2022/03/30 05:52:39;;;;;;;5.50;4.15;;;;;;;9.26;54.55;99905.44;5191385;28;20041;-79
2022/03/30 05:55:10;;;;;;;2.20;1.63;;;;;;;9.35;54.44;99897.25;5175016;28;20030;-79
2022/03/30 05:57:40;;;;;;;2.85;2.65;;;;;;;9.09;56.08;99908.66;5173456;28;20045;-79
2022/03/30 06:00:14;;;;;;;6.18;3.70;;;;;;;9.24;54.71;99909.88;5193226;28;20112;-79
2022/03/30 06:06:34;;;;;;;2.92;2.72;;;;;;;9.17;55.13;99903.13;5192162;28;20057;-80
2022/03/30 06:09:07;;;;;;;2.50;2.38;;;;;;;9.30;55.14;99917.50;5198364;28;20059;-80
2022/03/30 06:11:37;;;;;;;2.85;2.65;;;;;;;9.05;55.81;99912.25;5198491;28;20049;-80
2022/03/30 06:14:08;;;;;;;2.67;2.50;;;;;;;8.98;56.93;99911.59;5186400;28;20043;-80
2022/03/30 06:16:39;;;;;;;2.10;2.00;;;;;;;8.76;57.46;99920.16;5162602;28;20308;-78
2022/03/30 06:19:10;;;;;;;4.07;2.70;;;;;;;9.11;55.57;99915.53;5163324;28;20440;-79
2022/03/30 06:21:42;;;;;;;2.67;2.58;;;;;;;9.08;55.42;99910.38;5196341;28;20072;-79
2022/03/30 06:24:38;;;;;;;1.67;1.58;;;;;;;8.91;56.93;99920.56;5192254;28;20112;-78
2022/03/30 06:27:10;;;;;;;2.60;2.40;;;;;;;8.80;56.32;99924.38;5225094;23;20487;-80
2022/03/30 06:29:41;;;;;;;4.03;3.60;;;;;;;8.95;56.47;99925.66;5188310;28;20049;-79
2022/03/30 06:32:12;;;;;;;2.88;1.83;;;;;;;9.00;55.64;99933.34;5185413;28;20060;-79
2022/03/30 06:34:43;;;;;;;3.20;2.90;;;;;;;8.82;56.91;99940.88;5183352;28;20096;-79
2022/03/30 06:37:16;;;;;;;3.33;2.28;;;;;;;8.82;57.79;99935.66;5163592;28;20097;-80
2022/03/30 06:39:50;;;;;;;2.00;1.88;;;;;;;8.66;57.58;99934.44;5185095;28;20042;-79
2022/03/30 06:42:21;;;;;;;2.40;2.28;;;;;;;8.80;56.30;99927.00;5186763;28;20041;-79
2022/03/30 06:44:56;;;;;;;2.00;1.90;;;;;;;8.74;57.27;99937.66;5171404;28;20059;-81
2022/03/30 06:47:27;;;;;;;9.93;1.90;;;;;;;8.87;56.91;99938.13;5185216;28;20041;-78
2022/03/30 06:49:57;;;;;;;9.10;3.17;;;;;;;8.79;56.98;99934.91;5192422;28;20099;-81
2022/03/30 06:52:31;;;;;;;2.42;1.58;;;;;;;8.71;58.27;99940.41;5193111;28;20120;-78
2022/03/30 06:55:06;;;;;;;2.72;2.53;;;;;;;8.52;58.49;99932.25;5177576;28;20739;-78
2022/03/30 06:57:37;;;;;;;1.48;1.40;;;;;;;8.63;57.89;99930.16;5164644;28;20034;-79
2022/03/30 07:00:08;;;;;;;3.08;2.83;;;;;;;8.53;58.68;99927.91;5179054;28;20029;-80
2022/03/30 07:02:40;;;;;;;2.92;2.72;;;;;;;8.84;57.02;99933.00;5194629;28;20050;-78
2022/03/30 07:05:11;;;;;;;18.63;13.05;;;;;;;8.42;59.66;99931.66;5181666;28;20501;-79
2022/03/30 07:10:33;;;;;;;1.52;1.45;;;;;;;8.64;58.27;99925.78;5173171;28;20037;-79
2022/03/30 07:13:06;;;;;;;6.72;3.90;;;;;;;8.48;58.92;99926.25;5189997;28;20769;-79
2022/03/30 07:15:38;;;;;;;4.47;2.95;;;;;;;8.80;57.73;99920.91;5195901;28;20042;-79
2022/03/30 07:18:09;;;;;;;2.75;2.60;;;;;;;8.79;57.59;99919.22;5160846;28;20046;-80
2022/03/30 07:20:40;;;;;;;7.43;2.33;;;;;;;8.64;58.01;99923.16;5194787;28;20742;-78
2022/03/30 07:23:11;;;;;;;2.20;2.08;;;;;;;8.63;58.30;99922.31;5181889;28;20026;-79
2022/03/30 07:25:42;;;;;;;3.28;3.05;;;;;;;8.81;57.27;99928.72;5194086;28;20073;-80
2022/03/30 07:28:15;;;;;;;2.95;2.70;;;;;;;8.86;57.18;99927.72;5178071;28;20033;-79
2022/03/30 07:30:48;;;;;;;;;;;;;;;8.80;57.93;99929.59;5161224;28;20033;-80
2022/03/30 07:33:20;;;;;;;3.05;2.85;;;;;;;8.71;58.31;99934.28;5181671;28;19913;-79
2022/03/30 07:35:51;;;;;;;1.92;1.27;;;;;;;8.91;57.29;99929.28;5165083;28;20030;-79
2022/03/30 07:38:22;;;;;;;3.03;2.67;;;;;;;8.84;58.13;99922.53;5180429;28;20026;-79
2022/03/30 07:40:53;;;;;;;1.58;1.40;;;;;;;8.57;59.22;99926.88;5159551;28;20483;-79
2022/03/30 07:43:24;;;;;;;2.85;2.65;;;;;;;8.68;58.70;99931.78;5186913;28;20038;-79
2022/03/30 07:45:57;;;;;;;6.80;3.72;;;;;;;8.73;57.79;99928.09;5164961;28;20088;-80
2022/03/30 07:48:27;;;;;;;2.05;1.90;;;;;;;8.85;58.36;99934.69;5206670;28;20048;-79
2022/03/30 07:50:58;;;;;;;2.22;2.03;;;;;;;8.63;58.94;99939.78;5155929;28;20125;-79
2022/03/30 07:53:29;;;;;;;2.72;2.53;;;;;;;8.62;58.98;99932.84;5187221;28;20603;-79
2022/03/30 07:56:00;;;;;;;1.58;1.48;;;;;;;8.86;58.15;99930.34;5180070;28;20034;-79
2022/03/30 07:58:30;;;;;;;3.28;2.83;;;;;;;8.81;58.00;99933.94;5175241;28;20030;-79
2022/03/30 08:01:01;;;;;;;1.75;1.63;;;;;;;8.93;58.01;99934.47;5169086;28;20039;-79
2022/03/30 08:03:31;;;;;;;2.03;1.73;;;;;;;8.64;58.68;99931.00;5176565;28;20045;-80
2022/03/30 08:06:02;;;;;;;1.67;1.48;;;;;;;8.33;60.72;99932.81;5183572;28;20033;-80
2022/03/30 08:08:33;;;;;;;2.33;2.22;;;;;;;8.56;59.96;99925.16;5183908;28;20041;-83
2022/03/30 08:11:03;;;;;;;2.00;1.90;;;;;;;8.81;58.91;99928.72;5168226;28;20085;-81
2022/03/30 08:13:34;;;;;;;2.42;1.73;;;;;;;8.69;58.85;99918.66;5182100;28;20033;-80
2022/03/30 08:16:05;;;;;;;15.57;4.03;;;;;;;8.56;60.01;99915.56;5179779;28;20096;-79
2022/03/30 08:18:37;;;;;;;1.37;1.27;;;;;;;8.42;60.43;99912.50;5150729;28;20153;-81
2022/03/30 08:23:57;;;;;;;4.30;3.90;;;;;;;8.60;59.29;99913.72;5203208;28;20213;-80
2022/03/30 08:26:31;;;;;;;6.28;2.53;;;;;;;8.47;59.95;99911.47;5155732;28;20114;-80
2022/03/30 08:29:02;;;;;;;;;;;;;;;8.80;59.06;99920.91;5183753;28;20029;-81
2022/03/30 08:31:33;;;;;;;1.77;1.67;;;;;;;8.79;58.74;99914.84;5163180;28;19921;-80
2022/03/30 08:34:04;;;;;;;2.08;1.92;;;;;;;8.88;58.68;99915.44;5170910;28;20400;-80
2022/03/30 08:36:37;;;;;;;2.78;2.45;;;;;;;8.82;59.29;99917.34;5183835;28;20113;-81
2022/03/30 08:39:11;;;;;;;2.75;2.55;;;;;;;8.76;59.08;99909.69;5201406;28;20069;-81
2022/03/30 08:41:46;;;;;;;2.45;2.03;;;;;;;8.91;57.99;99907.47;5163021;28;20069;-79
2022/03/30 08:44:17;;;;;;;2.10;1.90;;;;;;;8.78;58.89;99913.13;5205566;28;20029;-80
2022/03/30 08:46:48;;;;;;;1.88;1.15;;;;;;;8.87;58.34;99914.56;5169832;28;20041;-80
2022/03/30 08:49:20;;;;;;;1.40;1.35;;;;;;;8.93;57.92;99901.28;5160301;28;20057;-81
2022/03/30 08:51:51;;;;;;;2.90;2.38;;;;;;;8.98;57.68;99903.75;5190790;28;20753;-80
2022/03/30 08:54:22;;;;;;;2.65;2.45;;;;;;;9.04;57.77;99890.47;5188437;28;20057;-80
2022/03/30 08:56:53;;;;;;;0.63;0.63;;;;;;;9.03;57.71;99886.16;5169441;28;20095;-80
2022/03/30 08:59:24;;;;;;;3.85;2.65;;;;;;;8.97;57.54;99902.03;5181849;28;20538;-81
2022/03/30 09:01:57;;;;;;;2.60;2.47;;;;;;;9.23;56.91;99895.06;5172577;28;20095;-79
2022/03/30 09:04:28;;;;;;;10.57;3.85;;;;;;;9.10;57.54;99898.13;5187713;28;20434;-80
2022/03/30 09:07:04;;;;;;;1.55;1.25;;;;;;;9.26;57.22;99894.97;5182350;28;20049;-80
2022/03/30 09:09:41;;;;;;;2.28;2.13;;;;;;;9.29;56.74;99905.34;5183379;28;20728;-81
2022/03/30 09:12:12;;;;;;;2.22;1.33;;;;;;;9.18;57.13;99903.06;5166450;28;20042;-81
2022/03/30 09:14:43;;;;;;;4.63;4.10;;;;;;;9.19;57.54;99902.16;5201277;28;20056;-81
2022/03/30 09:17:14;;;;;;;2.35;2.15;;;;;;;9.33;57.07;99893.84;5181006;28;20111;-80
2022/03/30 09:19:51;;;;;;;2.13;2.03;;;;;;;9.39;56.88;99893.63;5181629;28;20049;-81
2022/03/30 09:22:22;;;;;;;3.35;3.10;;;;;;;9.49;56.49;99888.94;5183171;28;20045;-81
2022/03/30 09:25:09;;;;;;;0.75;0.73;;;;;;;9.57;56.45;99897.34;5184002;28;20119;-80
2022/03/30 09:27:42;;;;;;;2.45;2.20;;;;;;;9.71;55.69;99888.13;5190897;28;20053;-80
2022/03/30 09:30:17;;;;;;;0.98;0.98;;;;;;;9.73;56.08;99881.91;5183392;28;20054;-80
2022/03/30 09:32:52;;;;;;;1.52;1.48;;;;;;;9.68;55.54;99886.50;5187146;28;20053;-80
2022/03/30 09:35:28;;;;;;;2.22;1.88;;;;;;;9.84;54.78;99888.53;5165091;28;20026;-80
2022/03/30 09:38:12;;;;;;;2.28;2.17;;;;;;;9.82;55.23;99891.22;5198396;28;20034;-80
2022/03/30 09:40:45;;;;;;;0.82;0.82;;;;;;;9.79;54.29;99895.72;5175049;28;20038;-80
2022/03/30 09:43:22;;;;;;;2.28;2.17;;;;;;;9.87;54.55;99889.28;5145437;28;20042;-80
2022/03/30 09:46:08;;;;;;;0.77;0.77;;;;;;;9.87;54.45;99889.28;5203640;28;20013;-82
2022/03/30 09:48:54;;;;;;;2.72;2.25;;;;;;;10.13;54.02;99890.06;5215554;28;20038;-81
2022/03/30 09:51:27;;;;;;;6.32;2.80;;;;;;;10.03;54.26;99893.94;5171051;28;20041;-81
2022/03/30 09:53:58;;;;;;;1.42;1.33;;;;;;;9.95;53.87;99886.38;5176824;28;20036;-81
2022/03/30 09:56:32;;;;;;;2.20;2.05;;;;;;;9.87;54.53;99885.81;5169402;28;20038;-81
2022/03/30 09:59:28;;;;;;;6.82;3.28;;;;;;;9.84;53.90;99878.06;5191938;28;20054;-81
2022/03/30 10:02:05;;;;;;;1.02;1.02;;;;;;;10.26;53.05;99874.69;5188597;28;20279;-81
2022/03/30 10:04:36;;;;;;;0.75;0.75;;;;;;;10.19;53.06;99873.22;5166572;28;20026;-81
2022/03/30 10:07:09;;;;;;;1.63;1.55;;;;;;;10.20;52.76;99869.69;5174150;28;20107;-81
2022/03/30 10:09:42;;;;;;;2.63;2.40;;;;;;;10.28;53.04;99866.75;5171000;28;20029;-82
2022/03/30 10:12:20;;;;;;;2.80;1.45;;;;;;;10.25;52.72;99867.75;5163723;28;20034;-81
2022/03/30 10:14:51;;;;;;;1.15;1.15;;;;;;;10.24;52.71;99860.78;5205156;28;20026;-81
2022/03/30 10:17:28;;;;;;;0.50;0.50;;;;;;;10.28;52.89;99857.16;5184074;28;20037;-82
2022/03/30 10:20:05;;;;;;;0.98;0.95;;;;;;;10.28;52.96;99861.53;5171891;28;20117;-81
2022/03/30 10:23:04;;;;;;;5.63;2.30;;;;;;;10.35;52.95;99852.50;5167878;28;20415;-82
2022/03/30 10:25:59;;;;;;;1.85;1.48;;;;;;;10.28;52.28;99851.03;5168000;28;20116;-81
2022/03/30 10:28:47;;;;;;;1.45;1.35;;;;;;;10.42;51.98;99838.25;5190364;28;20038;-81
2022/03/30 10:31:22;;;;;;;0.50;0.50;;;;;;;10.46;52.85;99842.47;5185348;28;20121;-81
2022/03/30 10:33:56;;;;;;;1.25;1.20;;;;;;;10.40;52.21;99837.47;5172157;28;20032;-81
2022/03/30 10:36:32;;;;;;;2.78;2.58;;;;;;;10.54;51.49;99831.63;5182817;28;20042;-80
2022/03/30 10:39:26;;;;;;;1.00;0.88;;;;;;;10.73;51.28;99833.50;5183466;28;20030;-80
2022/03/30 10:42:07;;;;;;;3.03;2.80;;;;;;;10.65;50.87;99832.06;5158448;28;20037;-81
2022/03/30 10:44:43;;;;;;;1.63;1.52;;;;;;;10.77;51.48;99829.84;5208139;28;20044;-81
2022/03/30 10:47:22;;;;;;;2.35;2.20;;;;;;;10.75;50.83;99831.69;5178814;28;20069;-81
2022/03/30 10:49:57;;;;;;;1.83;1.73;;;;;;;10.80;50.54;99821.84;5173565;28;20037;-81
2022/03/30 10:52:43;;;;;;;1.55;1.45;;;;;;;10.85;50.39;99822.50;5160655;28;20479;-81
2022/03/30 10:55:13;;;;;;;1.13;1.05;;;;;;;10.81;50.90;99823.53;5186093;28;20030;-81
2022/03/30 10:57:53;;;;;;;1.20;1.17;;;;;;;10.93;50.74;99816.91;5187792;28;20093;-81
2022/03/30 11:00:42;;;;;;;4.95;2.28;;;;;;;10.88;49.85;99821.53;5187119;28;20097;-81
2022/03/30 11:03:21;;;;;;;1.17;0.88;;;;;;;10.89;50.20;99816.19;5176188;28;20113;-81
2022/03/30 11:06:09;;;;;;;1.10;1.10;;;;;;;11.00;50.50;99808.72;5192066;28;20064;-80
2022/03/30 11:08:45;;;;;;;13.23;2.80;;;;;;;11.12;49.27;99801.22;5171177;28;20041;-80
2022/03/30 11:11:44;;;;;;;1.65;1.55;;;;;;;11.16;50.23;99801.00;5148338;28;20054;-81
2022/03/30 11:14:43;;;;;;;1.52;1.42;;;;;;;11.17;49.93;99786.13;5158961;28;20029;-80
2022/03/30 11:17:31;;;;;;;0.57;0.57;;;;;;;11.28;50.54;99788.25;5182536;28;20532;-81
2022/03/30 11:20:14;;;;;;;1.38;1.30;;;;;;;11.28;49.85;99770.72;5187075;28;20099;-80
2022/03/30 11:22:46;;;;;;;1.53;1.43;;;;;;;11.34;48.51;99780.97;5187086;28;20490;-80
2022/03/30 11:25:26;;;;;;;2.28;1.40;;;;;;;11.41;49.85;99772.81;5186073;28;20034;-80
2022/03/30 11:27:57;;;;;;;2.08;1.98;;;;;;;11.52;49.43;99772.31;5179000;28;20072;-80
2022/03/30 11:30:29;;;;;;;0.80;0.80;;;;;;;11.52;49.65;99772.31;5185854;28;20057;-81
2022/03/30 11:33:01;;;;;;;2.45;2.28;;;;;;;11.53;49.19;99766.97;5192347;28;20121;-80
2022/03/30 11:35:39;;;;;;;0.70;0.70;;;;;;;11.61;49.68;99759.59;5168388;28;20538;-81
2022/03/30 11:38:22;;;;;;;2.83;2.28;;;;;;;11.48;49.18;99758.47;5186903;28;20046;-81
2022/03/30 11:41:10;;;;;;;2.30;1.75;;;;;;;11.62;49.63;99758.66;5180965;28;20037;-80
2022/03/30 11:46:46;;;;;;;0.98;0.73;;;;;;;11.98;49.19;99749.16;5183491;28;20077;-79
2022/03/30 11:49:20;;;;;;;1.63;1.52;;;;;;;12.02;48.89;99749.84;5191202;28;20040;-80
2022/03/30 11:51:52;;;;;;;1.17;1.08;;;;;;;12.04;48.43;99745.34;5170088;28;20046;-80
2022/03/30 11:54:23;;;;;;;3.42;2.08;;;;;;;11.97;47.47;99747.44;5183971;28;20033;-81
2022/03/30 11:56:54;;;;;;;1.17;1.17;;;;;;;12.11;48.51;99736.22;5198193;28;20068;-79
2022/03/30 11:59:24;;;;;;;2.55;1.90;;;;;;;12.03;48.13;99741.00;5182423;28;20395;-79
2022/03/30 12:01:56;;;;;;;1.90;1.80;;;;;;;12.15;48.07;99740.44;5184426;28;20034;-80
2022/03/30 12:04:34;;;;;;;2.05;1.75;;;;;;;12.33;48.24;99733.41;5186765;28;20018;-81
2022/03/30 12:07:13;;;;;;;2.13;1.95;;;;;;;12.34;47.17;99729.00;5197775;28;20118;-81
2022/03/30 12:09:49;;;;;;;0.90;0.90;;;;;;;12.34;47.63;99732.47;5182744;28;20496;-81
2022/03/30 12:12:36;;;;;;;1.35;1.27;;;;;;;12.59;45.77;99729.47;5196888;28;20125;-81
2022/03/30 12:15:09;;;;;;;1.92;1.80;;;;;;;12.51;45.69;99726.38;5184017;28;20037;-81
2022/03/30 12:17:40;;;;;;;3.45;2.45;;;;;;;12.60;44.30;99725.88;5184697;28;20172;-81